Time;durP1;ratioP1;P1;durP2;ratioP2;P2;SDS_P1;SDS_P2;PMS_P1;PMS_P2;Temp;Humidity;BMP_temperature;BMP_pressure;BME280_temperature;BME280_humidity;BME280_pressure;Samples;Min_cycle;Max_cycle;Signal;HPM_P1;HPM_P2
2022/05/05 00:01:41;;;;;;;15.90;5.40;;;10.10;69.30;;;;;;5070577;28;20048;-67
2022/05/05 00:04:08;;;;;;;9.52;5.28;;;10.10;69.30;;;;;;5070175;28;20117;-67
2022/05/05 00:06:34;;;;;;;10.68;5.50;;;10.10;69.30;;;;;;5070396;28;20044;-67
2022/05/05 00:09:00;;;;;;;12.20;5.88;;;10.10;69.30;;;;;;5085047;28;21067;-67
2022/05/05 00:14:28;;;;;;;10.57;5.97;;;10.10;69.40;;;;;;5090511;28;20084;-67
2022/05/05 00:17:03;;;;;;;10.63;5.90;;;10.10;69.50;;;;;;5090732;28;20131;-68
2022/05/05 00:19:31;;;;;;;13.07;5.47;;;10.00;69.40;;;;;;5088803;28;20041;-68
2022/05/05 00:21:57;;;;;;;16.23;5.63;;;10.00;69.30;;;;;;5090399;28;20485;-67
2022/05/05 00:24:23;;;;;;;12.02;6.93;;;10.00;69.30;;;;;;5090114;28;20039;-67
2022/05/05 00:26:49;;;;;;;14.90;5.35;;;10.00;69.30;;;;;;5090261;28;20048;-67
2022/05/05 00:29:15;;;;;;;11.95;5.05;;;10.00;69.10;;;;;;5089959;28;20046;-68
2022/05/05 00:31:42;;;;;;;9.18;5.18;;;10.00;69.10;;;;;;5089723;28;20452;-67
2022/05/05 00:34:07;;;;;;;12.55;6.47;;;9.90;69.10;;;;;;5082636;28;20432;-67
2022/05/05 00:36:33;;;;;;;19.27;6.93;;;9.90;69.40;;;;;;5089971;28;20044;-67
2022/05/05 00:38:58;;;;;;;13.63;4.88;;;9.80;69.30;;;;;;5082617;28;20512;-67
2022/05/05 00:41:24;;;;;;;11.45;5.45;;;9.90;69.40;;;;;;5069749;28;20401;-68
2022/05/05 00:43:50;;;;;;;10.82;5.35;;;9.80;69.40;;;;;;5069832;28;20044;-67
2022/05/05 00:46:15;;;;;;;10.85;5.50;;;9.80;69.40;;;;;;5070045;28;20051;-67
2022/05/05 00:48:42;;;;;;;11.38;5.30;;;9.70;69.60;;;;;;5071111;28;20079;-67
2022/05/05 00:51:09;;;;;;;15.35;6.47;;;9.70;69.60;;;;;;5089625;28;20047;-67
2022/05/05 00:53:35;;;;;;;13.27;6.72;;;9.70;69.70;;;;;;5089579;28;20048;-68
2022/05/05 00:56:07;;;;;;;15.60;6.35;;;9.70;69.70;;;;;;5081471;28;20051;-67
2022/05/05 00:58:33;;;;;;;13.43;7.40;;;9.70;69.70;;;;;;5069711;28;20040;-68
2022/05/05 01:01:04;;;;;;;10.85;6.00;;;9.70;69.60;;;;;;5076201;28;20040;-67
2022/05/05 01:03:32;;;;;;;15.90;6.30;;;9.70;69.80;;;;;;5089704;28;20496;-67
2022/05/05 01:05:58;;;;;;;15.90;6.35;;;9.70;69.90;;;;;;5089624;28;20281;-67
2022/05/05 01:08:24;;;;;;;12.00;7.68;;;9.70;69.80;;;;;;5089485;28;20105;-68
2022/05/05 01:10:49;;;;;;;12.95;6.53;;;9.70;69.80;;;;;;5089634;28;20532;-67
2022/05/05 01:13:15;;;;;;;13.43;6.35;;;9.70;69.90;;;;;;5086404;28;20086;-67
2022/05/05 01:15:41;;;;;;;14.15;5.70;;;9.70;70.00;;;;;;5070730;28;20836;-67
2022/05/05 01:18:07;;;;;;;12.27;5.82;;;9.70;70.00;;;;;;5068089;28;20062;-67
2022/05/05 01:20:46;;;;;;;14.68;5.95;;;9.60;70.10;;;;;;5068812;28;20045;-67
2022/05/05 01:23:15;;;;;;;16.77;6.55;;;9.60;70.00;;;;;;5067618;28;20650;-67
2022/05/05 01:28:27;;;;;;;14.10;6.18;;;9.60;70.00;;;;;;5067855;28;20572;-68
2022/05/05 01:30:52;;;;;;;13.82;6.00;;;9.50;70.20;;;;;;5069087;28;20497;-67
2022/05/05 01:33:24;;;;;;;11.38;6.55;;;9.60;70.30;;;;;;5069499;28;20040;-67
2022/05/05 01:35:54;;;;;;;14.23;6.07;;;9.60;70.20;;;;;;5068931;28;20049;-68
2022/05/05 01:38:22;;;;;;;12.88;6.18;;;9.50;70.30;;;;;;5067853;28;20053;-67
2022/05/05 01:40:48;;;;;;;14.43;6.15;;;9.50;70.40;;;;;;5068834;28;20044;-67
2022/05/05 01:43:19;;;;;;;13.07;7.38;;;9.50;70.40;;;;;;5069862;28;20044;-67
2022/05/05 01:45:45;;;;;;;12.85;6.20;;;9.60;70.40;;;;;;5068993;28;20485;-68
2022/05/05 01:48:11;;;;;;;10.50;5.63;;;9.50;70.40;;;;;;5072891;28;20064;-67
2022/05/05 01:50:37;;;;;;;14.75;6.32;;;9.50;70.40;;;;;;5089234;28;20823;-67
2022/05/05 01:53:04;;;;;;;12.95;6.20;;;9.40;70.50;;;;;;5089310;28;20139;-68
2022/05/05 01:55:30;;;;;;;12.90;7.65;;;9.50;70.60;;;;;;5088919;28;20086;-68
2022/05/05 01:57:57;;;;;;;11.18;6.15;;;9.50;70.50;;;;;;5089140;28;20098;-67
2022/05/05 02:00:23;;;;;;;11.57;6.22;;;9.40;70.60;;;;;;5089227;28;20550;-68
2022/05/05 02:02:49;;;;;;;14.52;6.28;;;9.40;70.70;;;;;;5085566;28;20045;-68
2022/05/05 02:05:14;;;;;;;18.05;7.15;;;9.40;70.60;;;;;;5070719;28;20089;-67
2022/05/05 02:07:41;;;;;;;14.00;6.78;;;9.40;70.70;;;;;;5072659;28;20040;-66
2022/05/05 02:10:09;;;;;;;11.07;6.50;;;9.40;70.60;;;;;;5072815;28;20102;-66
2022/05/05 02:12:36;;;;;;;12.70;5.57;;;9.30;70.70;;;;;;5073487;28;20711;-66
2022/05/05 02:15:09;;;;;;;14.85;7.47;;;9.30;70.70;;;;;;5082404;28;20052;-66
2022/05/05 02:17:39;;;;;;;13.68;6.10;;;9.40;70.90;;;;;;5072609;28;20045;-67
2022/05/05 02:20:07;;;;;;;12.98;7.32;;;9.30;70.80;;;;;;5072270;28;20044;-66
2022/05/05 02:22:33;;;;;;;17.73;7.15;;;9.30;70.90;;;;;;5072613;28;20052;-67
2022/05/05 02:24:59;;;;;;;15.10;7.05;;;9.30;70.90;;;;;;5073398;28;20110;-67
2022/05/05 02:27:25;;;;;;;13.43;6.22;;;9.30;70.90;;;;;;5072263;28;20049;-67
2022/05/05 02:29:51;;;;;;;9.90;6.57;;;9.30;70.80;;;;;;5072091;28;20032;-67
2022/05/05 02:32:17;;;;;;;9.52;5.75;;;9.30;71.00;;;;;;5090332;28;20047;-66
2022/05/05 02:34:46;;;;;;;14.45;6.90;;;9.30;71.10;;;;;;5086377;28;20044;-66
2022/05/05 02:39:58;;;;;;;16.27;7.90;;;9.30;71.20;;;;;;5092219;28;20084;-67
2022/05/05 02:42:23;;;;;;;11.50;6.68;;;9.20;71.20;;;;;;5092110;28;20051;-66
2022/05/05 02:44:49;;;;;;;14.60;8.18;;;9.20;71.20;;;;;;5081576;28;20405;-66
2022/05/05 02:47:15;;;;;;;11.93;7.03;;;9.20;71.30;;;;;;5070750;28;20037;-66
2022/05/05 02:49:41;;;;;;;14.70;6.88;;;9.20;71.40;;;;;;5071742;28;20153;-66
2022/05/05 02:52:08;;;;;;;12.15;6.82;;;9.20;71.50;;;;;;5080583;28;20032;-66
2022/05/05 02:54:53;;;;;;;19.67;7.45;;;9.20;71.70;;;;;;5086476;28;20041;-66
2022/05/05 02:57:20;;;;;;;11.50;8.05;;;9.10;71.70;;;;;;5071933;28;20047;-66
2022/05/05 02:59:50;;;;;;;11.52;7.20;;;9.10;71.70;;;;;;5071644;28;20094;-66
2022/05/05 03:02:16;;;;;;;15.55;8.23;;;9.10;71.60;;;;;;5089631;28;20044;-66
2022/05/05 03:04:42;;;;;;;13.35;6.97;;;9.10;71.70;;;;;;5091964;28;20040;-66
2022/05/05 03:07:07;;;;;;;13.35;7.10;;;9.10;71.70;;;;;;5089918;28;20084;-66
2022/05/05 03:09:33;;;;;;;12.85;6.53;;;9.00;71.70;;;;;;5091615;28;20052;-66
2022/05/05 03:11:59;;;;;;;11.90;5.88;;;9.00;71.80;;;;;;5091478;28;20044;-66
2022/05/05 03:14:24;;;;;;;12.30;6.25;;;9.00;71.90;;;;;;5090318;28;20043;-67
2022/05/05 03:16:50;;;;;;;13.90;6.53;;;9.00;71.90;;;;;;5089595;28;20565;-66
2022/05/05 03:19:16;;;;;;;10.68;7.07;;;8.90;72.00;;;;;;5091474;28;20032;-66
2022/05/05 03:21:41;;;;;;;10.80;6.65;;;8.90;72.20;;;;;;5091838;28;20036;-67
2022/05/05 03:24:07;;;;;;;10.80;6.78;;;8.90;72.30;;;;;;5090636;28;20128;-67
2022/05/05 03:26:33;;;;;;;14.45;7.13;;;8.90;72.40;;;;;;5091448;28;20122;-68
2022/05/05 03:28:58;;;;;;;12.18;7.57;;;8.90;72.40;;;;;;5091426;28;20048;-68
2022/05/05 03:31:24;;;;;;;13.32;8.15;;;8.90;72.30;;;;;;5078311;28;20083;-67
2022/05/05 03:33:50;;;;;;;15.23;7.00;;;8.90;72.50;;;;;;5070249;28;20405;-67
2022/05/05 03:36:15;;;;;;;13.57;6.82;;;8.80;72.50;;;;;;5071140;28;20076;-67
2022/05/05 03:38:41;;;;;;;10.25;6.15;;;8.80;72.50;;;;;;5070626;28;20037;-68
2022/05/05 03:41:07;;;;;;;11.40;6.57;;;8.70;72.60;;;;;;5071119;28;20045;-67
2022/05/05 03:43:33;;;;;;;16.38;8.80;;;8.70;72.70;;;;;;5069908;28;20566;-67
2022/05/05 03:45:59;;;;;;;10.43;6.47;;;8.70;72.70;;;;;;5069308;28;20068;-67
2022/05/05 03:48:24;;;;;;;13.70;7.93;;;8.70;72.90;;;;;;5076149;28;20073;-67
2022/05/05 03:50:50;;;;;;;10.52;6.78;;;8.60;72.90;;;;;;5071967;28;20079;-67
2022/05/05 03:53:16;;;;;;;12.82;6.80;;;8.60;73.00;;;;;;5070674;28;20448;-67
2022/05/05 03:55:41;;;;;;;15.07;7.10;;;8.60;73.10;;;;;;5084011;28;20446;-68
2022/05/05 03:58:07;;;;;;;11.35;6.05;;;8.60;73.00;;;;;;5090686;28;20036;-68
2022/05/05 04:00:32;;;;;;;15.50;6.90;;;8.60;72.90;;;;;;5085816;28;20549;-67
2022/05/05 04:05:43;;;;;;;12.82;7.65;;;8.50;73.00;;;;;;5071058;28;20053;-67
2022/05/05 04:08:08;;;;;;;14.43;7.05;;;8.40;73.10;;;;;;5070407;28;20060;-67
2022/05/05 04:10:34;;;;;;;17.05;6.47;;;8.40;73.10;;;;;;5069705;28;20549;-67
2022/05/05 04:12:59;;;;;;;9.82;5.95;;;8.40;73.20;;;;;;5070290;28;20036;-68
2022/05/05 04:15:25;;;;;;;14.20;7.50;;;8.40;73.30;;;;;;5081748;28;20528;-67
2022/05/05 04:17:51;;;;;;;11.73;6.85;;;8.40;73.30;;;;;;5090639;28;20048;-68
2022/05/05 04:20:17;;;;;;;10.88;6.68;;;8.40;73.40;;;;;;5090669;28;20040;-68
2022/05/05 04:22:43;;;;;;;10.43;5.93;;;8.50;73.30;;;;;;5083440;28;20040;-67
2022/05/05 04:25:09;;;;;;;16.45;6.70;;;8.50;73.30;;;;;;5070079;28;20490;-67
2022/05/05 04:27:35;;;;;;;16.73;7.18;;;8.40;73.40;;;;;;5069385;28;20041;-68
2022/05/05 04:30:02;;;;;;;19.13;6.55;;;8.40;73.40;;;;;;5070012;28;20059;-67
2022/05/05 04:32:28;;;;;;;15.20;7.15;;;8.40;73.40;;;;;;5069567;28;20116;-68
2022/05/05 04:34:54;;;;;;;14.48;6.90;;;8.40;73.40;;;;;;5069830;28;20166;-67
2022/05/05 04:37:20;;;;;;;13.98;6.85;;;8.40;73.50;;;;;;5069934;28;20076;-67
2022/05/05 04:39:46;;;;;;;13.98;7.45;;;8.50;73.50;;;;;;5070894;28;20040;-68
2022/05/05 04:42:12;;;;;;;14.45;5.93;;;8.50;73.50;;;;;;5088946;28;20048;-68
2022/05/05 04:44:37;;;;;;;10.77;5.80;;;8.40;73.60;;;;;;5087712;28;20052;-68
2022/05/05 04:47:03;;;;;;;10.48;6.30;;;8.50;73.70;;;;;;5090117;28;20044;-68
2022/05/05 04:49:30;;;;;;;16.15;6.38;;;8.50;73.60;;;;;;5089672;28;20552;-68
2022/05/05 04:51:56;;;;;;;11.55;6.63;;;8.50;73.70;;;;;;5089291;28;20079;-68
2022/05/05 04:54:22;;;;;;;14.88;6.95;;;8.50;73.70;;;;;;5090117;28;20079;-68
2022/05/05 04:56:47;;;;;;;12.07;6.55;;;8.50;73.60;;;;;;5090016;28;20565;-68
2022/05/05 04:59:13;;;;;;;16.85;8.82;;;8.60;73.80;;;;;;5085692;28;20044;-67
2022/05/05 05:01:39;;;;;;;12.18;6.50;;;8.60;73.70;;;;;;5070451;28;20048;-68
2022/05/05 05:04:06;;;;;;;13.05;6.32;;;8.70;73.70;;;;;;5069398;28;20127;-67
2022/05/05 05:06:32;;;;;;;13.45;7.20;;;8.70;73.60;;;;;;5069353;28;20053;-67
2022/05/05 05:08:57;;;;;;;13.98;7.28;;;8.80;73.60;;;;;;5069414;28;20055;-68
2022/05/05 05:11:23;;;;;;;15.30;6.70;;;8.80;73.50;;;;;;5069385;28;20787;-67
2022/05/05 05:13:49;;;;;;;13.35;6.22;;;8.80;73.60;;;;;;5076853;28;20050;-67
2022/05/05 05:16:15;;;;;;;16.13;6.70;;;8.90;73.60;;;;;;5069075;28;20045;-67
2022/05/05 05:18:41;;;;;;;9.75;6.10;;;8.90;73.60;;;;;;5069303;28;20569;-67
2022/05/05 05:21:06;;;;;;;15.32;7.32;;;9.00;73.80;;;;;;5069029;28;20123;-68
2022/05/05 05:23:32;;;;;;;15.38;6.85;;;9.00;73.80;;;;;;5069217;28;20036;-67
2022/05/05 05:25:58;;;;;;;18.83;8.55;;;9.10;73.80;;;;;;5069581;28;20135;-67
2022/05/05 05:28:24;;;;;;;18.65;7.68;;;9.10;73.90;;;;;;5069250;28;20125;-67
2022/05/05 05:30:50;;;;;;;12.88;7.82;;;9.10;73.90;;;;;;5074738;28;20032;-67
2022/05/05 05:33:15;;;;;;;10.00;6.68;;;9.20;74.00;;;;;;5089121;28;20059;-67
2022/05/05 05:35:41;;;;;;;13.57;7.07;;;9.30;74.10;;;;;;5089237;28;20050;-67
2022/05/05 05:38:07;;;;;;;13.82;7.10;;;9.30;74.30;;;;;;5089184;28;20040;-68
2022/05/05 05:40:33;;;;;;;11.65;6.82;;;9.40;74.40;;;;;;5086355;28;20041;-68
2022/05/05 05:42:58;;;;;;;13.95;7.75;;;9.50;74.50;;;;;;5088442;28;20051;-67
2022/05/05 05:45:24;;;;;;;14.85;6.53;;;9.50;74.70;;;;;;5085861;28;20040;-67
2022/05/05 05:47:50;;;;;;;10.85;6.50;;;9.60;74.70;;;;;;5068996;28;20045;-68
2022/05/05 05:50:16;;;;;;;14.82;6.88;;;9.60;74.80;;;;;;5068870;28;20049;-68
2022/05/05 05:52:42;;;;;;;18.33;7.03;;;9.70;74.80;;;;;;5068731;28;20048;-67
2022/05/05 05:55:08;;;;;;;13.80;7.00;;;9.80;74.70;;;;;;5077659;28;20128;-68
2022/05/05 05:57:33;;;;;;;11.65;7.72;;;9.80;74.60;;;;;;5089066;28;20044;-68
2022/05/05 05:59:59;;;;;;;9.27;6.13;;;9.80;74.40;;;;;;5089157;28;20086;-67
2022/05/05 06:05:09;;;;;;;12.60;6.85;;;10.00;74.30;;;;;;5086276;28;20056;-68
2022/05/05 06:07:34;;;;;;;16.88;7.88;;;10.00;74.20;;;;;;5088765;28;20059;-68
2022/05/05 06:10:00;;;;;;;15.43;6.75;;;10.10;74.10;;;;;;5088343;28;20071;-68
2022/05/05 06:12:26;;;;;;;14.35;7.05;;;10.10;74.10;;;;;;5088820;28;20059;-67
2022/05/05 06:14:51;;;;;;;12.20;6.82;;;10.20;74.00;;;;;;5088481;28;20186;-67
2022/05/05 06:17:17;;;;;;;14.20;7.53;;;10.20;73.90;;;;;;5088781;28;20462;-67
2022/05/05 06:19:43;;;;;;;12.68;7.13;;;10.30;73.70;;;;;;5088662;28;20945;-67
2022/05/05 06:22:09;;;;;;;16.88;7.03;;;10.40;73.60;;;;;;5077926;28;20036;-67
2022/05/05 06:24:35;;;;;;;15.55;7.70;;;10.50;73.60;;;;;;5068326;28;20059;-66
2022/05/05 06:27:01;;;;;;;19.45;7.88;;;10.50;73.40;;;;;;5068186;28;20038;-67
2022/05/05 06:29:27;;;;;;;21.98;8.18;;;10.60;73.40;;;;;;5068402;28;20048;-67
2022/05/05 06:31:53;;;;;;;15.45;7.03;;;10.70;73.40;;;;;;5068220;28;20055;-67
2022/05/05 06:34:18;;;;;;;19.80;6.53;;;10.70;73.40;;;;;;5070021;28;20040;-67
2022/05/05 06:36:44;;;;;;;17.38;8.80;;;10.80;73.40;;;;;;5069204;28;20067;-67
2022/05/05 06:39:09;;;;;;;11.55;7.35;;;10.90;73.40;;;;;;5069472;28;20080;-67
2022/05/05 06:41:35;;;;;;;18.85;8.75;;;11.00;73.40;;;;;;5068332;28;20048;-67
2022/05/05 06:44:01;;;;;;;17.95;8.77;;;11.00;73.40;;;;;;5088589;28;20385;-67
2022/05/05 06:46:27;;;;;;;30.92;8.70;;;11.10;73.30;;;;;;5088113;28;20048;-67
2022/05/05 06:48:54;;;;;;;16.60;9.02;;;11.20;73.50;;;;;;5076894;28;20053;-67
2022/05/05 06:51:20;;;;;;;21.23;9.38;;;11.20;73.40;;;;;;5070353;28;20049;-67
2022/05/05 06:53:46;;;;;;;15.52;7.53;;;11.30;73.40;;;;;;5071812;28;20044;-67
2022/05/05 06:56:12;;;;;;;14.38;8.57;;;11.30;73.30;;;;;;5071427;28;20136;-67
2022/05/05 06:58:37;;;;;;;13.32;7.57;;;11.40;73.20;;;;;;5082836;28;20094;-67
2022/05/05 07:03:47;;;;;;;19.08;7.55;;;11.60;72.70;;;;;;5072611;28;20048;-67
2022/05/05 07:06:12;;;;;;;17.70;7.80;;;11.60;72.40;;;;;;5087189;28;20094;-66
2022/05/05 07:11:23;;;;;;;25.25;6.68;;;11.70;71.80;;;;;;5071546;28;20078;-67
2022/05/05 07:13:49;;;;;;;14.10;7.15;;;11.70;71.70;;;;;;5071288;28;20052;-67
2022/05/05 07:16:14;;;;;;;11.27;6.20;;;11.80;71.40;;;;;;5071265;28;20090;-67
2022/05/05 07:18:40;;;;;;;13.40;7.10;;;11.90;71.40;;;;;;5076973;28;20064;-67
2022/05/05 07:21:05;;;;;;;13.98;6.80;;;11.90;71.30;;;;;;5091789;28;20059;-67
2022/05/05 07:23:31;;;;;;;14.73;7.75;;;12.00;71.30;;;;;;5081913;28;20150;-67
2022/05/05 07:25:57;;;;;;;15.40;6.95;;;12.00;71.30;;;;;;5071237;28;20390;-67
2022/05/05 07:28:23;;;;;;;13.57;6.97;;;12.10;71.00;;;;;;5071753;28;20155;-66
2022/05/05 07:30:50;;;;;;;17.20;7.30;;;12.10;70.90;;;;;;5091460;28;20231;-67
2022/05/05 07:33:16;;;;;;;12.57;6.78;;;12.20;70.70;;;;;;5090777;28;20425;-67
2022/05/05 07:35:42;;;;;;;14.25;7.43;;;12.30;70.40;;;;;;5090255;28;20043;-67
2022/05/05 07:38:08;;;;;;;14.90;6.78;;;12.40;70.30;;;;;;5090405;28;20084;-66
2022/05/05 07:40:33;;;;;;;22.23;8.38;;;12.40;70.20;;;;;;5089230;28;20051;-67
2022/05/05 07:42:59;;;;;;;11.50;6.80;;;12.50;70.10;;;;;;5089105;28;20040;-67
2022/05/05 07:45:24;;;;;;;13.43;6.97;;;12.60;69.90;;;;;;5070140;28;20047;-66
2022/05/05 07:47:50;;;;;;;11.13;6.68;;;12.70;69.90;;;;;;5092574;28;20039;-67
2022/05/05 07:50:16;;;;;;;12.30;7.60;;;12.80;69.70;;;;;;5090881;28;20040;-67
2022/05/05 07:52:41;;;;;;;11.10;7.00;;;12.80;69.50;;;;;;5090905;28;20040;-67
2022/05/05 07:55:08;;;;;;;13.77;6.80;;;12.90;69.50;;;;;;5072250;28;20044;-67
2022/05/05 07:57:46;;;;;;;13.70;6.65;;;13.10;69.30;;;;;;5057275;28;20055;-68
2022/05/05 08:00:13;;;;;;;12.27;6.50;;;13.10;68.80;;;;;;5081859;28;20044;-67
2022/05/05 08:02:38;;;;;;;15.98;7.28;;;13.20;68.60;;;;;;5083581;28;20086;-67
2022/05/05 08:05:05;;;;;;;13.27;6.78;;;13.20;68.20;;;;;;5089675;28;20080;-68
2022/05/05 08:07:30;;;;;;;11.50;6.80;;;13.30;68.30;;;;;;5070482;28;20037;-66
2022/05/05 08:09:56;;;;;;;18.52;7.60;;;13.40;68.10;;;;;;5070998;28;20473;-67
2022/05/05 08:12:21;;;;;;;15.95;7.50;;;13.50;67.90;;;;;;5070186;28;20106;-66
2022/05/05 08:14:48;;;;;;;12.68;6.05;;;13.60;67.60;;;;;;5085440;28;20054;-66
2022/05/05 08:17:14;;;;;;;14.82;6.65;;;13.70;67.10;;;;;;5089226;28;20751;-68
2022/05/05 08:19:39;;;;;;;13.07;5.68;;;13.80;66.80;;;;;;5090507;28;20389;-68
2022/05/05 08:22:05;;;;;;;14.90;5.95;;;13.90;66.70;;;;;;5090191;28;20055;-68
2022/05/05 08:30:03;;;;;;;12.25;4.97;;;14.10;65.00;;;;;;5070612;28;20099;-67
2022/05/05 08:32:29;;;;;;;15.23;5.80;;;14.10;64.20;;;;;;5069751;28;20052;-66
2022/05/05 08:34:55;;;;;;;14.48;5.80;;;14.20;64.20;;;;;;5070995;28;20394;-66
2022/05/05 08:37:21;;;;;;;14.45;5.80;;;14.30;64.10;;;;;;5079800;28;20400;-66
2022/05/05 08:39:46;;;;;;;15.30;5.10;;;14.30;64.10;;;;;;5069883;28;20068;-66
2022/05/05 08:42:12;;;;;;;15.13;4.95;;;14.50;63.90;;;;;;5086152;28;20044;-66
2022/05/05 08:44:37;;;;;;;13.98;5.00;;;14.60;63.40;;;;;;5080539;28;20041;-66
2022/05/05 08:47:06;;;;;;;12.30;5.03;;;14.70;63.00;;;;;;5069580;28;20044;-66
2022/05/05 08:49:34;;;;;;;11.45;4.78;;;14.80;62.90;;;;;;5070059;28;20598;-66
2022/05/05 08:52:03;;;;;;;9.57;4.28;;;14.90;62.40;;;;;;5075444;28;20040;-65
2022/05/05 08:54:32;;;;;;;10.77;4.97;;;15.10;62.10;;;;;;5080491;28;20036;-66
2022/05/05 08:56:58;;;;;;;11.77;4.50;;;15.10;61.60;;;;;;5089243;28;20039;-65
2022/05/05 08:59:25;;;;;;;10.48;4.15;;;15.10;61.50;;;;;;5089181;28;20052;-66
2022/05/05 09:01:51;;;;;;;9.00;4.60;;;15.20;61.20;;;;;;5078622;28;20051;-65
2022/05/05 09:04:18;;;;;;;7.88;4.45;;;15.30;60.70;;;;;;5069329;28;20078;-66
2022/05/05 09:06:53;;;;;;;10.13;4.15;;;15.40;60.80;;;;;;5080347;28;20048;-65
2022/05/05 09:09:29;;;;;;;12.95;4.40;;;15.50;59.80;;;;;;5085109;28;20130;-65
2022/05/05 09:12:12;;;;;;;8.10;3.92;;;15.50;60.00;;;;;;5088472;28;20082;-65
2022/05/05 09:14:53;;;;;;;9.80;4.53;;;15.50;59.30;;;;;;5074074;28;20044;-66
2022/05/05 09:17:21;;;;;;;10.38;4.07;;;15.50;59.50;;;;;;5068529;28;20075;-65
2022/05/05 09:19:49;;;;;;;7.93;4.15;;;15.50;59.80;;;;;;5069060;28;20036;-65
2022/05/05 09:22:18;;;;;;;11.05;5.38;;;15.50;59.60;;;;;;5068889;28;20090;-66
2022/05/05 09:24:46;;;;;;;12.55;4.10;;;15.50;59.60;;;;;;5069900;28;20482;-66
2022/05/05 09:27:14;;;;;;;8.38;3.72;;;15.40;59.20;;;;;;5069449;28;20053;-65
2022/05/05 09:29:40;;;;;;;8.32;3.30;;;15.30;59.20;;;;;;5073582;28;20055;-66
2022/05/05 09:32:12;;;;;;;11.07;3.85;;;15.30;58.60;;;;;;5089139;28;20377;-66
2022/05/05 09:34:39;;;;;;;11.93;4.03;;;15.30;58.50;;;;;;5082283;28;20489;-65
2022/05/05 09:37:18;;;;;;;11.85;4.70;;;15.30;58.70;;;;;;5068469;28;20056;-66
2022/05/05 09:39:43;;;;;;;7.93;3.60;;;15.30;58.10;;;;;;5068842;28;20477;-65
2022/05/05 09:42:09;;;;;;;12.43;5.53;;;15.40;58.30;;;;;;5073927;28;20052;-67
2022/05/05 09:44:44;;;;;;;5.57;3.55;;;15.40;58.10;;;;;;5068060;28;20049;-67
2022/05/05 09:47:14;;;;;;;9.35;5.22;;;15.50;57.80;;;;;;5075582;28;20130;-66
2022/05/05 09:49:40;;;;;;;11.70;5.25;;;15.50;57.50;;;;;;5089024;28;20051;-66
2022/05/05 09:57:41;;;;;;;13.70;5.10;;;15.80;57.90;;;;;;5085242;28;20048;-66
2022/05/05 10:00:23;;;;;;;6.72;4.30;;;15.90;57.60;;;;;;5073884;28;20044;-65
2022/05/05 10:05:45;;;;;;;11.05;5.05;;;16.10;57.20;;;;;;5068016;28;20049;-65
2022/05/05 10:08:15;;;;;;;8.25;4.55;;;16.10;57.30;;;;;;5068328;28;20551;-65
2022/05/05 10:10:42;;;;;;;8.77;5.03;;;16.10;57.30;;;;;;5069568;28;20048;-66
2022/05/05 10:13:12;;;;;;;9.13;4.97;;;16.10;56.90;;;;;;5068026;28;20064;-66
2022/05/05 10:15:38;;;;;;;9.70;5.95;;;16.10;57.10;;;;;;5068052;28;20572;-67
2022/05/05 10:18:04;;;;;;;11.82;5.40;;;16.10;57.00;;;;;;5068871;28;20037;-66
2022/05/05 10:20:33;;;;;;;17.17;8.05;;;16.20;57.30;;;;;;5067838;28;20074;-67
2022/05/05 10:23:16;;;;;;;13.45;8.20;;;16.30;56.90;;;;;;5068194;28;20052;-67
2022/05/05 10:25:42;;;;;;;14.55;8.88;;;16.40;56.60;;;;;;5068205;28;20513;-66
2022/05/05 10:28:39;;;;;;;12.43;8.45;;;16.50;56.80;;;;;;5080164;28;20063;-67
2022/05/05 10:31:13;;;;;;;15.27;7.03;;;16.60;56.30;;;;;;5092032;28;20511;-66
2022/05/05 10:34:08;;;;;;;11.32;7.68;;;16.60;56.20;;;;;;5092065;28;20075;-66
2022/05/05 10:36:36;;;;;;;14.70;10.13;;;16.80;55.90;;;;;;5091583;28;20048;-66
2022/05/05 10:39:18;;;;;;;15.60;10.40;;;16.80;56.50;;;;;;5078227;28;20098;-66
2022/05/05 10:41:44;;;;;;;13.05;9.68;;;16.80;55.90;;;;;;5071972;28;20616;-67
2022/05/05 10:44:16;;;;;;;14.85;10.63;;;16.80;56.70;;;;;;5071677;28;20132;-66
2022/05/05 10:46:57;;;;;;;16.92;8.68;;;16.70;56.80;;;;;;5071834;28;20504;-65
2022/05/05 10:49:47;;;;;;;28.40;11.15;;;16.80;57.00;;;;;;5071383;28;20040;-66
2022/05/05 10:52:21;;;;;;;18.73;8.98;;;16.80;57.00;;;;;;5066071;28;20071;-66
2022/05/05 10:54:52;;;;;;;15.27;9.30;;;16.90;56.90;;;;;;5073414;28;20051;-66
2022/05/05 10:57:27;;;;;;;17.52;9.80;;;17.00;57.30;;;;;;5089990;28;20779;-66
2022/05/05 11:00:08;;;;;;;16.98;9.02;;;17.00;56.90;;;;;;5071451;28;20041;-67
2022/05/05 11:02:35;;;;;;;16.17;9.25;;;17.10;56.50;;;;;;5077922;28;20048;-66
2022/05/05 11:05:21;;;;;;;14.10;8.93;;;17.00;56.70;;;;;;5091379;28;20036;-66
2022/05/05 11:07:51;;;;;;;16.55;8.98;;;17.10;56.30;;;;;;5090194;28;20580;-66
2022/05/05 11:10:42;;;;;;;13.65;9.43;;;17.10;56.20;;;;;;5071272;28;20135;-66
2022/05/05 11:13:28;;;;;;;19.02;9.60;;;17.10;56.30;;;;;;5070633;28;20051;-66
2022/05/05 11:21:36;;;;;;;18.55;9.60;;;17.40;56.40;;;;;;5071455;28;20056;-67
2022/05/05 11:24:02;;;;;;;19.40;10.93;;;17.60;55.80;;;;;;5084329;28;20086;-66
2022/05/05 11:26:29;;;;;;;14.82;9.88;;;17.60;55.30;;;;;;5106705;28;20071;-66
2022/05/05 11:28:58;;;;;;;19.17;11.20;;;17.80;55.40;;;;;;5071444;28;20056;-67
2022/05/05 11:31:26;;;;;;;17.35;10.88;;;17.90;55.10;;;;;;5071318;28;20141;-66
2022/05/05 11:34:03;;;;;;;18.20;12.80;;;18.10;54.90;;;;;;5070517;28;20041;-67
2022/05/05 11:36:37;;;;;;;14.93;10.15;;;18.20;54.50;;;;;;5070246;28;20098;-66
2022/05/05 11:39:03;;;;;;;17.25;10.07;;;18.30;54.10;;;;;;5070303;28;20082;-67
2022/05/05 11:41:30;;;;;;;16.35;11.13;;;18.30;54.00;;;;;;5070742;28;20044;-68
2022/05/05 11:46:40;;;;;;;14.88;10.32;;;18.40;53.90;;;;;;5069141;28;20055;-68
2022/05/05 11:49:07;;;;;;;12.50;8.77;;;18.50;53.80;;;;;;5105897;28;20080;-68
2022/05/05 11:51:35;;;;;;;18.38;8.82;;;18.50;53.80;;;;;;5090576;28;20050;-69
2022/05/05 11:54:05;;;;;;;13.45;10.23;;;18.60;53.80;;;;;;5089282;28;20048;-67
2022/05/05 11:56:32;;;;;;;15.27;10.00;;;18.60;53.50;;;;;;5090351;28;20044;-66
2022/05/05 12:02:00;;;;;;;17.17;9.25;;;18.60;52.60;;;;;;5090119;28;20541;-66
2022/05/05 12:04:27;;;;;;;18.92;11.38;;;18.50;52.60;;;;;;5104740;28;20508;-65
2022/05/05 12:06:53;;;;;;;17.08;10.18;;;18.50;52.90;;;;;;5089906;28;20079;-67
2022/05/05 12:09:20;;;;;;;15.55;10.57;;;18.50;53.80;;;;;;5088902;28;20090;-67
2022/05/05 12:11:46;;;;;;;13.73;9.52;;;18.60;53.70;;;;;;5070024;28;20498;-67
2022/05/05 12:14:13;;;;;;;17.25;11.00;;;18.60;53.20;;;;;;5069299;28;20413;-67
2022/05/05 12:16:39;;;;;;;15.55;10.60;;;18.70;53.30;;;;;;5069724;28;20049;-67
2022/05/05 12:19:17;;;;;;;17.98;10.77;;;18.90;53.10;;;;;;5095315;28;20056;-67
2022/05/05 12:21:54;;;;;;;17.98;11.57;;;19.10;52.80;;;;;;5071025;28;20044;-67
2022/05/05 12:24:24;;;;;;;17.25;11.18;;;19.20;51.70;;;;;;5069566;28;20041;-66
2022/05/05 12:27:12;;;;;;;19.00;11.55;;;19.30;52.30;;;;;;5068298;28;20052;-66
2022/05/05 12:29:45;;;;;;;17.42;10.98;;;19.50;52.00;;;;;;5085151;28;20067;-67
2022/05/05 12:32:16;;;;;;;16.55;10.60;;;19.60;52.00;;;;;;5089528;28;20089;-67
2022/05/05 12:34:43;;;;;;;17.13;10.45;;;19.60;52.00;;;;;;5088411;28;20046;-67
2022/05/05 12:37:27;;;;;;;17.33;10.75;;;19.70;51.60;;;;;;5089535;28;20061;-67
2022/05/05 12:40:01;;;;;;;13.57;9.02;;;19.80;50.50;;;;;;5089418;28;20083;-68
2022/05/05 12:42:44;;;;;;;16.23;10.18;;;19.80;51.10;;;;;;5089908;28;20451;-66
2022/05/05 12:45:15;;;;;;;14.98;10.43;;;20.10;50.80;;;;;;5089864;28;20032;-67
2022/05/05 12:47:43;;;;;;;14.52;10.05;;;20.10;50.30;;;;;;5089378;28;20501;-67
2022/05/05 12:50:28;;;;;;;16.60;11.27;;;20.10;50.70;;;;;;5089391;28;20130;-67
2022/05/05 13:01:06;;;;;;;19.83;12.50;;;20.00;51.10;;;;;;5088512;28;20048;-67
2022/05/05 13:03:32;;;;;;;19.40;12.73;;;20.00;51.20;;;;;;5088961;28;20420;-66
2022/05/05 13:05:58;;;;;;;22.77;13.68;;;20.00;51.30;;;;;;5089807;28;20075;-66
2022/05/05 13:08:23;;;;;;;19.83;12.80;;;19.90;51.60;;;;;;5089103;28;20092;-66
2022/05/05 13:10:49;;;;;;;16.50;12.23;;;20.00;51.70;;;;;;5086050;28;20120;-68
2022/05/05 13:13:15;;;;;;;22.63;13.15;;;20.10;51.80;;;;;;5070720;28;20047;-66
2022/05/05 13:15:41;;;;;;;18.48;12.23;;;20.20;51.70;;;;;;5078973;28;20469;-65
2022/05/05 13:18:07;;;;;;;17.55;11.73;;;20.40;51.20;;;;;;5087930;28;20044;-66
2022/05/05 13:20:33;;;;;;;21.15;13.07;;;20.40;50.80;;;;;;5088078;28;20054;-67
2022/05/05 13:23:00;;;;;;;20.38;14.15;;;20.40;50.10;;;;;;5068785;28;20642;-66
2022/05/05 13:25:26;;;;;;;19.77;11.57;;;20.20;49.90;;;;;;5075321;28;20051;-66
2022/05/05 13:27:52;;;;;;;16.50;11.65;;;20.20;50.10;;;;;;5088983;28;20049;-66
2022/05/05 13:30:18;;;;;;;19.70;12.65;;;20.20;50.00;;;;;;5086421;28;20059;-66
2022/05/05 13:32:44;;;;;;;17.10;11.68;;;20.30;50.20;;;;;;5071602;28;20033;-66
2022/05/05 13:35:10;;;;;;;19.08;10.48;;;20.50;50.20;;;;;;5082552;28;20055;-64
2022/05/05 13:37:37;;;;;;;16.10;11.35;;;20.50;49.90;;;;;;5087063;28;20052;-64